sensor_id;sensor_type;location;lat;lon;timestamp;pressure;altitude;pressure_sealevel;temperature;humidity
19795;BME280;10057;59.402;17.866;2022-11-20T00:01:24;101541.25;;;0.52;81.02
19795;BME280;10057;59.402;17.866;2022-11-20T00:03:53;101541.25;;;0.52;81.12
19795;BME280;10057;59.402;17.866;2022-11-20T00:06:21;101537.72;;;0.50;81.04
19795;BME280;10057;59.402;17.866;2022-11-20T00:08:48;101536.78;;;0.46;81.20
19795;BME280;10057;59.402;17.866;2022-11-20T00:11:17;101531.56;;;0.46;80.98
19795;BME280;10057;59.402;17.866;2022-11-20T00:13:49;101525.47;;;0.45;81.02
19795;BME280;10057;59.402;17.866;2022-11-20T00:16:19;101526.34;;;0.46;81.24
19795;BME280;10057;59.402;17.866;2022-11-20T00:18:46;101528.09;;;0.47;81.09
19795;BME280;10057;59.402;17.866;2022-11-20T00:21:18;101529.84;;;0.46;81.02
19795;BME280;10057;59.402;17.866;2022-11-20T00:23:48;101530.75;;;0.49;80.94
19795;BME280;10057;59.402;17.866;2022-11-20T00:26:16;101528.97;;;0.47;81.06
19795;BME280;10057;59.402;17.866;2022-11-20T00:28:53;101527.22;;;0.46;81.11
19795;BME280;10057;59.402;17.866;2022-11-20T00:31:20;101526.34;;;0.46;80.90
19795;BME280;10057;59.402;17.866;2022-11-20T00:33:47;101525.47;;;0.45;81.16
19795;BME280;10057;59.402;17.866;2022-11-20T00:36:23;101528.91;;;0.44;81.02
19795;BME280;10057;59.402;17.866;2022-11-20T00:38:58;101524.56;;;0.42;81.05
19795;BME280;10057;59.402;17.866;2022-11-20T00:41:27;101517.59;;;0.44;81.05
19795;BME280;10057;59.402;17.866;2022-11-20T00:43:56;101517.59;;;0.44;80.96
19795;BME280;10057;59.402;17.866;2022-11-20T00:46:27;101507.09;;;0.39;80.99
19795;BME280;10057;59.402;17.866;2022-11-20T00:48:57;101503.63;;;0.40;80.88
19795;BME280;10057;59.402;17.866;2022-11-20T00:51:33;101499.25;;;0.39;80.76
19795;BME280;10057;59.402;17.866;2022-11-20T00:54:00;101493.16;;;0.39;80.75
19795;BME280;10057;59.402;17.866;2022-11-20T00:56:28;101497.50;;;0.38;81.08
19795;BME280;10057;59.402;17.866;2022-11-20T00:58:55;101486.22;;;0.41;81.15
19795;BME280;10057;59.402;17.866;2022-11-20T01:01:24;101494.06;;;0.41;81.16
19795;BME280;10057;59.402;17.866;2022-11-20T01:03:53;101495.78;;;0.39;81.04
19795;BME280;10057;59.402;17.866;2022-11-20T01:06:25;101488.81;;;0.39;81.06
19795;BME280;10057;59.402;17.866;2022-11-20T01:08:54;101484.47;;;0.38;80.96
19795;BME280;10057;59.402;17.866;2022-11-20T01:11:27;101487.94;;;0.39;81.17
19795;BME280;10057;59.402;17.866;2022-11-20T01:13:56;101490.56;;;0.40;81.05
19795;BME280;10057;59.402;17.866;2022-11-20T01:16:28;101475.78;;;0.41;81.26
19795;BME280;10057;59.402;17.866;2022-11-20T01:18:58;101487.13;;;0.41;81.06
19795;BME280;10057;59.402;17.866;2022-11-20T01:21:35;101486.22;;;0.39;80.96
19795;BME280;10057;59.402;17.866;2022-11-20T01:24:03;101481.00;;;0.41;80.89
19795;BME280;10057;59.402;17.866;2022-11-20T01:26:35;101480.97;;;0.39;80.98
19795;BME280;10057;59.402;17.866;2022-11-20T01:29:03;101463.59;;;0.40;81.03
19795;BME280;10057;59.402;17.866;2022-11-20T01:31:32;101477.56;;;0.42;81.25
19795;BME280;10057;59.402;17.866;2022-11-20T01:34:01;101462.72;;;0.41;80.99
19795;BME280;10057;59.402;17.866;2022-11-20T01:36:29;101469.69;;;0.40;81.02
19795;BME280;10057;59.402;17.866;2022-11-20T01:38:58;101461.84;;;0.39;80.75
19795;BME280;10057;59.402;17.866;2022-11-20T01:41:27;101461.84;;;0.39;81.08
19795;BME280;10057;59.402;17.866;2022-11-20T01:44:20;101457.44;;;0.36;81.14
19795;BME280;10057;59.402;17.866;2022-11-20T01:46:56;101449.59;;;0.35;80.90
19795;BME280;10057;59.402;17.866;2022-11-20T01:49:27;101451.28;;;0.33;80.81
19795;BME280;10057;59.402;17.866;2022-11-20T01:52:05;101442.53;;;0.31;81.02
19795;BME280;10057;59.402;17.866;2022-11-20T01:54:38;101439.97;;;0.32;80.97
19795;BME280;10057;59.402;17.866;2022-11-20T01:57:09;101438.25;;;0.33;80.88
19795;BME280;10057;59.402;17.866;2022-11-20T01:59:42;101434.75;;;0.32;81.02
19795;BME280;10057;59.402;17.866;2022-11-20T02:02:11;101430.41;;;0.31;80.70
19795;BME280;10057;59.402;17.866;2022-11-20T02:04:38;101426.00;;;0.30;81.00
19795;BME280;10057;59.402;17.866;2022-11-20T02:07:09;101423.44;;;0.32;80.98
19795;BME280;10057;59.402;17.866;2022-11-20T02:09:37;101419.06;;;0.31;80.97
19795;BME280;10057;59.402;17.866;2022-11-20T02:12:06;101419.03;;;0.29;80.90
19795;BME280;10057;59.402;17.866;2022-11-20T02:14:52;101417.28;;;0.28;80.86
19795;BME280;10057;59.402;17.866;2022-11-20T02:17:19;101419.00;;;0.26;80.86
19795;BME280;10057;59.402;17.866;2022-11-20T02:19:46;101413.78;;;0.26;81.11
19795;BME280;10057;59.402;17.866;2022-11-20T02:22:28;101415.50;;;0.24;80.87
19795;BME280;10057;59.402;17.866;2022-11-20T02:24:59;101409.38;;;0.23;81.14
19795;BME280;10057;59.402;17.866;2022-11-20T02:27:28;101400.72;;;0.25;80.96
19795;BME280;10057;59.402;17.866;2022-11-20T02:30:01;101406.81;;;0.25;80.94
19795;BME280;10057;59.402;17.866;2022-11-20T02:32:35;101392.88;;;0.26;80.97
19795;BME280;10057;59.402;17.866;2022-11-20T02:37:44;101381.56;;;0.24;81.02
19795;BME280;10057;59.402;17.866;2022-11-20T02:40:15;101378.97;;;0.24;80.90
19795;BME280;10057;59.402;17.866;2022-11-20T02:42:42;101383.31;;;0.25;80.92
19795;BME280;10057;59.402;17.866;2022-11-20T02:45:08;101388.53;;;0.25;80.74
19795;BME280;10057;59.402;17.866;2022-11-20T02:47:38;101378.97;;;0.24;80.93
19795;BME280;10057;59.402;17.866;2022-11-20T02:50:05;101374.56;;;0.23;80.92
19795;BME280;10057;59.402;17.866;2022-11-20T02:52:32;101379.78;;;0.23;80.98
19795;BME280;10057;59.402;17.866;2022-11-20T02:54:59;101367.63;;;0.23;81.07
19795;BME280;10057;59.402;17.866;2022-11-20T02:57:25;101367.59;;;0.22;80.80
19795;BME280;10057;59.402;17.866;2022-11-20T02:59:52;101366.69;;;0.20;80.84
19795;BME280;10057;59.402;17.866;2022-11-20T03:02:19;101365.84;;;0.21;81.00
19795;BME280;10057;59.402;17.866;2022-11-20T03:04:46;101360.63;;;0.21;81.10
19795;BME280;10057;59.402;17.866;2022-11-20T03:07:12;101370.22;;;0.22;80.90
19795;BME280;10057;59.402;17.866;2022-11-20T03:09:39;101361.47;;;0.20;81.07
19795;BME280;10057;59.402;17.866;2022-11-20T03:12:06;101350.16;;;0.19;81.06
19795;BME280;10057;59.402;17.866;2022-11-20T03:14:32;101351.03;;;0.20;80.79
19795;BME280;10057;59.402;17.866;2022-11-20T03:16:59;101347.59;;;0.21;81.02
19795;BME280;10057;59.402;17.866;2022-11-20T03:19:25;101349.28;;;0.19;80.90
19795;BME280;10057;59.402;17.866;2022-11-20T03:21:52;101341.44;;;0.17;81.06
19795;BME280;10057;59.402;17.866;2022-11-20T03:24:19;101350.16;;;0.18;80.65
19795;BME280;10057;59.402;17.866;2022-11-20T03:26:45;101345.75;;;0.17;80.94
19795;BME280;10057;59.402;17.866;2022-11-20T03:29:12;101350.16;;;0.18;80.75
19795;BME280;10057;59.402;17.866;2022-11-20T03:31:40;101344.91;;;0.16;80.97
19795;BME280;10057;59.402;17.866;2022-11-20T03:34:08;101344.91;;;0.16;80.82
19795;BME280;10057;59.402;17.866;2022-11-20T03:36:40;101340.53;;;0.14;81.10
19795;BME280;10057;59.402;17.866;2022-11-20T03:39:08;101332.66;;;0.12;80.86
19795;BME280;10057;59.402;17.866;2022-11-20T03:41:39;101338.75;;;0.13;81.06
19795;BME280;10057;59.402;17.866;2022-11-20T03:44:08;101328.31;;;0.13;80.98
19795;BME280;10057;59.402;17.866;2022-11-20T03:46:36;101330.03;;;0.11;80.77
19795;BME280;10057;59.402;17.866;2022-11-20T03:49:03;101326.56;;;0.12;80.94
19795;BME280;10057;59.402;17.866;2022-11-20T03:51:32;101324.78;;;0.09;80.98
19795;BME280;10057;59.402;17.866;2022-11-20T03:54:01;101311.72;;;0.08;81.02
19795;BME280;10057;59.402;17.866;2022-11-20T03:56:33;101312.56;;;0.07;81.01
19795;BME280;10057;59.402;17.866;2022-11-20T03:59:00;101309.06;;;0.05;80.89
19795;BME280;10057;59.402;17.866;2022-11-20T04:01:30;101304.72;;;0.04;80.99
19795;BME280;10057;59.402;17.866;2022-11-20T04:03:57;101297.78;;;0.06;80.95
19795;BME280;10057;59.402;17.866;2022-11-20T04:06:34;101295.16;;;0.06;81.15
19795;BME280;10057;59.402;17.866;2022-11-20T04:09:02;101291.69;;;0.07;80.86
19795;BME280;10057;59.402;17.866;2022-11-20T04:11:30;101295.16;;;0.06;80.95
19795;BME280;10057;59.402;17.866;2022-11-20T04:13:59;101296.03;;;0.06;81.04
19795;BME280;10057;59.402;17.866;2022-11-20T04:16:29;101295.97;;;0.03;81.00
19795;BME280;10057;59.402;17.866;2022-11-20T04:18:57;101286.41;;;0.02;80.86
19795;BME280;10057;59.402;17.866;2022-11-20T04:21:25;101284.69;;;0.03;81.05
19795;BME280;10057;59.402;17.866;2022-11-20T04:23:52;101277.72;;;0.02;80.88
19795;BME280;10057;59.402;17.866;2022-11-20T04:26:21;101269.03;;;0.03;81.20
19795;BME280;10057;59.402;17.866;2022-11-20T04:28:48;101275.16;;;0.05;81.14
19795;BME280;10057;59.402;17.866;2022-11-20T04:31:17;101266.44;;;0.04;81.29
19795;BME280;10057;59.402;17.866;2022-11-20T04:33:44;101267.28;;;0.03;80.96
19795;BME280;10057;59.402;17.866;2022-11-20T04:36:14;101271.69;;;0.06;81.25
19795;BME280;10057;59.402;17.866;2022-11-20T04:38:41;101271.69;;;0.06;81.25
19795;BME280;10057;59.402;17.866;2022-11-20T04:41:13;101265.59;;;0.07;81.31
19795;BME280;10057;59.402;17.866;2022-11-20T04:43:41;101259.50;;;0.05;81.13
19795;BME280;10057;59.402;17.866;2022-11-20T04:46:07;101256.91;;;0.06;81.16
19795;BME280;10057;59.402;17.866;2022-11-20T04:48:34;101249.06;;;0.06;80.88
19795;BME280;10057;59.402;17.866;2022-11-20T04:51:04;101250.84;;;0.07;81.21
19795;BME280;10057;59.402;17.866;2022-11-20T04:53:31;101245.63;;;0.09;80.97
19795;BME280;10057;59.402;17.866;2022-11-20T04:56:02;101243.94;;;0.11;81.06
19795;BME280;10057;59.402;17.866;2022-11-20T04:58:29;101243.06;;;0.12;80.97
19795;BME280;10057;59.402;17.866;2022-11-20T05:01:07;101248.28;;;0.12;81.08
19795;BME280;10057;59.402;17.866;2022-11-20T05:03:35;101251.75;;;0.11;80.74
19795;BME280;10057;59.402;17.866;2022-11-20T05:06:10;101234.34;;;0.10;80.77
19795;BME280;10057;59.402;17.866;2022-11-20T05:08:37;101234.34;;;0.10;81.03
19795;BME280;10057;59.402;17.866;2022-11-20T05:11:09;101229.97;;;0.09;81.02
19795;BME280;10057;59.402;17.866;2022-11-20T05:13:36;101228.28;;;0.11;80.93
19795;BME280;10057;59.402;17.866;2022-11-20T05:16:09;101226.50;;;0.10;80.84
19795;BME280;10057;59.402;17.866;2022-11-20T05:18:37;101217.75;;;0.06;80.85
19795;BME280;10057;59.402;17.866;2022-11-20T05:21:07;101222.09;;;0.06;80.96
19795;BME280;10057;59.402;17.866;2022-11-20T05:23:34;101211.63;;;0.03;80.73
19795;BME280;10057;59.402;17.866;2022-11-20T05:26:02;101220.31;;;0.02;80.93
19795;BME280;10057;59.402;17.866;2022-11-20T05:28:30;101221.16;;;-0.01;81.15
19795;BME280;10057;59.402;17.866;2022-11-20T05:31:22;101207.22;;;-0.02;80.83
19795;BME280;10057;59.402;17.866;2022-11-20T05:33:55;101208.94;;;-0.04;81.10
19795;BME280;10057;59.402;17.866;2022-11-20T05:36:22;101208.94;;;-0.04;81.00
19795;BME280;10057;59.402;17.866;2022-11-20T05:38:48;101199.34;;;-0.05;80.47
19795;BME280;10057;59.402;17.866;2022-11-20T05:41:18;101205.44;;;-0.04;80.77
19795;BME280;10057;59.402;17.866;2022-11-20T05:43:47;101196.72;;;-0.08;80.88
19795;BME280;10057;59.402;17.866;2022-11-20T05:46:15;101204.56;;;-0.05;80.85
19795;BME280;10057;59.402;17.866;2022-11-20T05:48:43;101192.41;;;-0.06;80.75
19795;BME280;10057;59.402;17.866;2022-11-20T05:51:12;101195.88;;;-0.07;80.89
19795;BME280;10057;59.402;17.866;2022-11-20T05:53:39;101194.97;;;-0.10;80.67
19795;BME280;10057;59.402;17.866;2022-11-20T05:56:16;101196.69;;;-0.09;80.96
19795;BME280;10057;59.402;17.866;2022-11-20T05:58:47;101189.75;;;-0.10;80.75
19795;BME280;10057;59.402;17.866;2022-11-20T06:01:25;101192.31;;;-0.12;80.54
19795;BME280;10057;59.402;17.866;2022-11-20T06:03:53;101189.75;;;-0.10;81.08
19795;BME280;10057;59.402;17.866;2022-11-20T06:06:20;101190.63;;;-0.10;80.91
19795;BME280;10057;59.402;17.866;2022-11-20T06:08:46;101174.09;;;-0.09;80.84
19795;BME280;10057;59.402;17.866;2022-11-20T06:11:14;101169.75;;;-0.08;80.82
19795;BME280;10057;59.402;17.866;2022-11-20T06:13:42;101171.53;;;-0.06;81.17
19795;BME280;10057;59.402;17.866;2022-11-20T06:16:10;101162.84;;;-0.05;80.84
19795;BME280;10057;59.402;17.866;2022-11-20T06:18:37;101167.19;;;-0.04;80.90
19795;BME280;10057;59.402;17.866;2022-11-20T06:21:13;101168.97;;;-0.01;81.00
19795;BME280;10057;59.402;17.866;2022-11-20T06:23:40;101168.13;;;0.02;81.01
19795;BME280;10057;59.402;17.866;2022-11-20T06:26:18;101169.00;;;0.02;80.84
19795;BME280;10057;59.402;17.866;2022-11-20T06:28:45;101169.88;;;0.01;80.74
19795;BME280;10057;59.402;17.866;2022-11-20T06:31:14;101171.63;;;0.01;80.83
19795;BME280;10057;59.402;17.866;2022-11-20T06:33:42;101173.34;;;0.02;80.86
19795;BME280;10057;59.402;17.866;2022-11-20T06:36:10;101160.31;;;0.03;80.74
19795;BME280;10057;59.402;17.866;2022-11-20T06:38:38;101155.09;;;0.00;80.83
19795;BME280;10057;59.402;17.866;2022-11-20T06:41:06;101151.63;;;0.01;81.15
19795;BME280;10057;59.402;17.866;2022-11-20T06:43:33;101150.75;;;0.01;80.71
19795;BME280;10057;59.402;17.866;2022-11-20T06:46:00;101155.09;;;0.00;80.95
19795;BME280;10057;59.402;17.866;2022-11-20T06:48:27;101159.41;;;-0.01;80.92
19795;BME280;10057;59.402;17.866;2022-11-20T06:50:55;101156.78;;;-0.01;80.96
19795;BME280;10057;59.402;17.866;2022-11-20T06:53:22;101149.84;;;-0.02;80.85
19795;BME280;10057;59.402;17.866;2022-11-20T06:55:50;101148.09;;;-0.03;80.89
19795;BME280;10057;59.402;17.866;2022-11-20T06:58:18;101136.78;;;-0.03;80.96
19795;BME280;10057;59.402;17.866;2022-11-20T07:00:44;101132.44;;;-0.03;80.73
19795;BME280;10057;59.402;17.866;2022-11-20T07:03:12;101133.28;;;-0.04;81.11
19795;BME280;10057;59.402;17.866;2022-11-20T07:05:41;101137.63;;;-0.04;81.07
19795;BME280;10057;59.402;17.866;2022-11-20T07:08:08;101143.72;;;-0.04;81.02
19795;BME280;10057;59.402;17.866;2022-11-20T07:10:35;101150.72;;;-0.01;80.92
19795;BME280;10057;59.402;17.866;2022-11-20T07:13:02;101161.13;;;-0.03;80.79
19795;BME280;10057;59.402;17.866;2022-11-20T07:15:29;101154.16;;;-0.04;81.00
19795;BME280;10057;59.402;17.866;2022-11-20T07:17:59;101147.19;;;-0.05;81.02
19795;BME280;10057;59.402;17.866;2022-11-20T07:20:26;101146.31;;;-0.04;81.26
19795;BME280;10057;59.402;17.866;2022-11-20T07:22:56;101144.56;;;-0.05;80.94
19795;BME280;10057;59.402;17.866;2022-11-20T07:25:25;101144.56;;;-0.06;80.97
19795;BME280;10057;59.402;17.866;2022-11-20T07:27:51;101137.63;;;-0.06;81.20
19795;BME280;10057;59.402;17.866;2022-11-20T07:30:18;101124.56;;;-0.06;80.87
19795;BME280;10057;59.402;17.866;2022-11-20T07:32:52;101113.31;;;-0.03;81.05
19795;BME280;10057;59.402;17.866;2022-11-20T07:35:19;101112.41;;;-0.04;80.79
19795;BME280;10057;59.402;17.866;2022-11-20T07:37:46;101117.63;;;-0.04;80.80
19795;BME280;10057;59.402;17.866;2022-11-20T07:40:13;101115.91;;;-0.03;80.90
19795;BME280;10057;59.402;17.866;2022-11-20T07:42:55;101112.41;;;-0.04;80.78
19795;BME280;10057;59.402;17.866;2022-11-20T07:45:23;101112.44;;;-0.02;81.23
19795;BME280;10057;59.402;17.866;2022-11-20T07:47:52;101104.63;;;-0.01;81.05
19795;BME280;10057;59.402;17.866;2022-11-20T07:50:23;101096.78;;;-0.01;81.07
19795;BME280;10057;59.402;17.866;2022-11-20T07:53:01;101103.78;;;0.01;81.25
19795;BME280;10057;59.402;17.866;2022-11-20T07:55:28;101099.41;;;-0.01;81.05
19795;BME280;10057;59.402;17.866;2022-11-20T07:57:57;101102.06;;;0.01;81.48
19795;BME280;10057;59.402;17.866;2022-11-20T08:00:27;101097.69;;;0.03;81.39
19795;BME280;10057;59.402;17.866;2022-11-20T08:02:54;101099.53;;;0.07;81.20
19795;BME280;10057;59.402;17.866;2022-11-20T08:05:21;101089.09;;;0.09;81.13
19795;BME280;10057;59.402;17.866;2022-11-20T08:07:47;101080.44;;;0.11;81.13
19795;BME280;10057;59.402;17.866;2022-11-20T08:10:15;101078.66;;;0.10;81.00
19795;BME280;10057;59.402;17.866;2022-11-20T08:12:47;101072.56;;;0.10;81.36
19795;BME280;10057;59.402;17.866;2022-11-20T08:15:32;101070.84;;;0.12;81.11
19795;BME280;10057;59.402;17.866;2022-11-20T08:18:01;101067.38;;;0.13;81.10
19795;BME280;10057;59.402;17.866;2022-11-20T08:20:47;101068.31;;;0.18;81.33
19795;BME280;10057;59.402;17.866;2022-11-20T08:23:14;101068.31;;;0.19;80.95
19795;BME280;10057;59.402;17.866;2022-11-20T08:25:41;101072.66;;;0.20;81.47
19795;BME280;10057;59.402;17.866;2022-11-20T08:28:09;101073.56;;;0.21;81.21
19795;BME280;10057;59.402;17.866;2022-11-20T08:30:47;101064.00;;;0.21;81.07
19795;BME280;10057;59.402;17.866;2022-11-20T08:33:14;101065.78;;;0.24;81.24
19795;BME280;10057;59.402;17.866;2022-11-20T08:35:43;101064.88;;;0.23;81.35
19795;BME280;10057;59.402;17.866;2022-11-20T08:38:10;101058.78;;;0.23;81.28
19795;BME280;10057;59.402;17.866;2022-11-20T08:40:36;101048.34;;;0.23;81.30
19795;BME280;10057;59.402;17.866;2022-11-20T08:43:03;101042.28;;;0.26;81.22
19795;BME280;10057;59.402;17.866;2022-11-20T08:45:30;101044.91;;;0.27;81.54
19795;BME280;10057;59.402;17.866;2022-11-20T08:48:03;101042.31;;;0.29;81.31
19795;BME280;10057;59.402;17.866;2022-11-20T08:50:30;101044.06;;;0.28;81.39
19795;BME280;10057;59.402;17.866;2022-11-20T08:53:05;101034.50;;;0.30;81.35
19795;BME280;10057;59.402;17.866;2022-11-20T08:55:33;101023.22;;;0.33;81.35
19795;BME280;10057;59.402;17.866;2022-11-20T08:58:05;101033.66;;;0.33;81.40
19795;BME280;10057;59.402;17.866;2022-11-20T09:00:33;101029.31;;;0.33;81.25
19795;BME280;10057;59.402;17.866;2022-11-20T09:03:00;101024.13;;;0.36;81.45
19795;BME280;10057;59.402;17.866;2022-11-20T09:05:28;101022.41;;;0.38;81.22
19795;BME280;10057;59.402;17.866;2022-11-20T09:07:58;101026.75;;;0.41;81.10
19795;BME280;10057;59.402;17.866;2022-11-20T09:10:26;101022.44;;;0.43;81.19
19795;BME280;10057;59.402;17.866;2022-11-20T09:12:55;101017.22;;;0.43;81.49
19795;BME280;10057;59.402;17.866;2022-11-20T09:15:23;101012.88;;;0.43;81.28
19795;BME280;10057;59.402;17.866;2022-11-20T09:20:18;101012.00;;;0.44;81.70
19795;BME280;10057;59.402;17.866;2022-11-20T09:22:45;101006.78;;;0.44;81.47
19795;BME280;10057;59.402;17.866;2022-11-20T09:25:11;101004.16;;;0.43;81.68
19795;BME280;10057;59.402;17.866;2022-11-20T09:27:38;101011.16;;;0.45;81.39
19795;BME280;10057;59.402;17.866;2022-11-20T09:30:05;101011.16;;;0.47;81.61
19795;BME280;10057;59.402;17.866;2022-11-20T09:32:32;101006.81;;;0.47;81.34
19795;BME280;10057;59.402;17.866;2022-11-20T09:34:59;100999.88;;;0.51;81.79
19795;BME280;10057;59.402;17.866;2022-11-20T09:37:30;100999.03;;;0.52;81.46
19795;BME280;10057;59.402;17.866;2022-11-20T09:39:57;101000.78;;;0.53;81.23
19795;BME280;10057;59.402;17.866;2022-11-20T09:50:28;100987.72;;;0.58;81.61
19795;BME280;10057;59.402;17.866;2022-11-20T09:55:47;100976.41;;;0.57;81.59
19795;BME280;10057;59.402;17.866;2022-11-20T09:58:35;100965.09;;;0.57;81.68
19795;BME280;10057;59.402;17.866;2022-11-20T10:01:26;100961.66;;;0.59;81.36
19795;BME280;10057;59.402;17.866;2022-11-20T10:06:56;100955.56;;;0.60;81.24
19795;BME280;10057;59.402;17.866;2022-11-20T10:09:40;100952.94;;;0.59;81.72
19795;BME280;10057;59.402;17.866;2022-11-20T10:12:27;100945.09;;;0.57;81.49
19795;BME280;10057;59.402;17.866;2022-11-20T10:26:17;100921.59;;;0.56;81.40
19795;BME280;10057;59.402;17.866;2022-11-20T10:31:56;100925.94;;;0.57;81.61
19795;BME280;10057;59.402;17.866;2022-11-20T10:34:54;100924.19;;;0.57;81.25
19795;BME280;10057;59.402;17.866;2022-11-20T10:37:25;100915.53;;;0.58;81.47
19795;BME280;10057;59.402;17.866;2022-11-20T10:43:16;100913.78;;;0.60;81.24
19795;BME280;10057;59.402;17.866;2022-11-20T10:45:49;100907.69;;;0.61;81.68
19795;BME280;10057;59.402;17.866;2022-11-20T10:48:25;100905.09;;;0.63;81.59
19795;BME280;10057;59.402;17.866;2022-11-20T10:53:58;100903.38;;;0.66;81.35
19795;BME280;10057;59.402;17.866;2022-11-20T10:56:46;100894.66;;;0.67;81.55
19795;BME280;10057;59.402;17.866;2022-11-20T11:01:57;100897.31;;;0.69;81.49
19795;BME280;10057;59.402;17.866;2022-11-20T11:07:23;100897.34;;;0.72;81.52
19795;BME280;10057;59.402;17.866;2022-11-20T11:09:50;100880.78;;;0.73;81.58
19795;BME280;10057;59.402;17.866;2022-11-20T11:12:19;100878.16;;;0.75;81.39
19795;BME280;10057;59.402;17.866;2022-11-20T11:14:54;100884.25;;;0.74;81.79
19795;BME280;10057;59.402;17.866;2022-11-20T11:17:32;100866.84;;;0.73;81.66
19795;BME280;10057;59.402;17.866;2022-11-20T11:20:06;100869.47;;;0.74;81.61
19795;BME280;10057;59.402;17.866;2022-11-20T11:22:55;100868.59;;;0.74;81.68
19795;BME280;10057;59.402;17.866;2022-11-20T11:25:30;100856.44;;;0.76;81.83
19795;BME280;10057;59.402;17.866;2022-11-20T11:28:19;100854.69;;;0.76;81.82
19795;BME280;10057;59.402;17.866;2022-11-20T11:30:46;100845.97;;;0.77;81.87
19795;BME280;10057;59.402;17.866;2022-11-20T11:33:28;100841.66;;;0.79;81.85
19795;BME280;10057;59.402;17.866;2022-11-20T11:36:04;100838.16;;;0.80;81.84
19795;BME280;10057;59.402;17.866;2022-11-20T11:38:43;100828.59;;;0.82;81.82
19795;BME280;10057;59.402;17.866;2022-11-20T11:41:20;100819.88;;;0.85;81.83
19795;BME280;10057;59.402;17.866;2022-11-20T11:44:13;100826.84;;;0.84;81.83
19795;BME280;10057;59.402;17.866;2022-11-20T11:47:00;100821.63;;;0.87;81.86
19795;BME280;10057;59.402;17.866;2022-11-20T11:49:28;100818.16;;;0.88;81.55
19795;BME280;10057;59.402;17.866;2022-11-20T11:54:31;100808.59;;;0.90;82.21
19795;BME280;10057;59.402;17.866;2022-11-20T11:57:05;100804.25;;;0.91;81.79
19795;BME280;10057;59.402;17.866;2022-11-20T12:05:14;100799.88;;;0.91;82.04
19795;BME280;10057;59.402;17.866;2022-11-20T12:13:02;100796.41;;;0.89;81.85
19795;BME280;10057;59.402;17.866;2022-11-20T12:15:33;100780.75;;;0.89;81.77
19795;BME280;10057;59.402;17.866;2022-11-20T12:18:01;100775.50;;;0.89;81.71
19795;BME280;10057;59.402;17.866;2022-11-20T12:20:34;100775.50;;;0.89;81.94
19795;BME280;10057;59.402;17.866;2022-11-20T12:23:17;100770.28;;;0.89;82.03
19795;BME280;10057;59.402;17.866;2022-11-20T12:25:48;100773.75;;;0.88;81.84
19795;BME280;10057;59.402;17.866;2022-11-20T12:33:26;100765.91;;;0.88;81.94
19795;BME280;10057;59.402;17.866;2022-11-20T12:44:33;100749.34;;;0.85;81.96
19795;BME280;10057;59.402;17.866;2022-11-20T12:53:36;100733.66;;;0.82;82.15
19795;BME280;10057;59.402;17.866;2022-11-20T12:56:35;100743.25;;;0.81;82.09
19795;BME280;10057;59.402;17.866;2022-11-20T13:01:56;100731.94;;;0.76;82.24
19795;BME280;10057;59.402;17.866;2022-11-20T13:07:07;100724.09;;;0.73;82.24
19795;BME280;10057;59.402;17.866;2022-11-20T13:09:45;100713.63;;;0.71;82.17
19795;BME280;10057;59.402;17.866;2022-11-20T13:17:54;100711.88;;;0.70;82.32
19795;BME280;10057;59.402;17.866;2022-11-20T13:20:21;100707.53;;;0.69;81.98
19795;BME280;10057;59.402;17.866;2022-11-20T13:22:53;100704.03;;;0.67;82.34
19795;BME280;10057;59.402;17.866;2022-11-20T13:25:31;100698.84;;;0.66;82.28
19795;BME280;10057;59.402;17.866;2022-11-20T13:28:01;100704.06;;;0.66;82.19
19795;BME280;10057;59.402;17.866;2022-11-20T13:30:36;100702.28;;;0.65;82.55
19795;BME280;10057;59.402;17.866;2022-11-20T13:33:09;100697.06;;;0.65;82.35
19795;BME280;10057;59.402;17.866;2022-11-20T13:35:59;100691.84;;;0.63;82.39
19795;BME280;10057;59.402;17.866;2022-11-20T13:38:26;100696.22;;;0.66;82.78
19795;BME280;10057;59.402;17.866;2022-11-20T13:41:00;100689.25;;;0.66;82.58
19795;BME280;10057;59.402;17.866;2022-11-20T13:43:47;100684.03;;;0.68;82.50
19795;BME280;10057;59.402;17.866;2022-11-20T13:46:14;100678.81;;;0.68;82.72
19795;BME280;10057;59.402;17.866;2022-11-20T13:48:45;100681.41;;;0.68;82.58
19795;BME280;10057;59.402;17.866;2022-11-20T13:51:42;100670.97;;;0.68;82.42
19795;BME280;10057;59.402;17.866;2022-11-20T13:54:28;100680.56;;;0.70;82.57
19795;BME280;10057;59.402;17.866;2022-11-20T13:57:11;100671.84;;;0.71;82.40
19795;BME280;10057;59.402;17.866;2022-11-20T14:02:20;100666.63;;;0.75;82.66
19795;BME280;10057;59.402;17.866;2022-11-20T14:04:50;100662.28;;;0.74;82.74
19795;BME280;10057;59.402;17.866;2022-11-20T14:07:20;100669.25;;;0.73;82.85
19795;BME280;10057;59.402;17.866;2022-11-20T14:09:53;100663.16;;;0.73;82.44
19795;BME280;10057;59.402;17.866;2022-11-20T14:12:28;100665.75;;;0.74;82.58
19795;BME280;10057;59.402;17.866;2022-11-20T14:14:55;100658.78;;;0.71;82.57
19795;BME280;10057;59.402;17.866;2022-11-20T14:20:04;100655.31;;;0.63;82.54
19795;BME280;10057;59.402;17.866;2022-11-20T14:22:31;100652.69;;;0.62;82.42
19795;BME280;10057;59.402;17.866;2022-11-20T14:25:27;100647.47;;;0.60;82.45
19795;BME280;10057;59.402;17.866;2022-11-20T14:27:57;100645.72;;;0.59;82.65
19795;BME280;10057;59.402;17.866;2022-11-20T14:30:29;100649.22;;;0.58;82.86
19795;BME280;10057;59.402;17.866;2022-11-20T14:33:03;100653.56;;;0.59;82.40
19795;BME280;10057;59.402;17.866;2022-11-20T14:35:34;100646.59;;;0.58;82.46
19795;BME280;10057;59.402;17.866;2022-11-20T14:38:03;100644.00;;;0.58;82.96
19795;BME280;10057;59.402;17.866;2022-11-20T14:40:32;100644.84;;;0.57;82.68
19795;BME280;10057;59.402;17.866;2022-11-20T14:43:16;100632.66;;;0.56;82.53